WEATHER DATA

TODAY
Time Temp. Dewp. Hum. Wind dir Wind speed Wind gust Bar. 1h Prec. 24h Prec.
00:09 22.3 18.1 77 218 3.3 4.2 1012.3 0.0000 0.0000
00:19 22.1 17.7 76 216 3.3 4.4 1012.5 0.0000 0.0000
00:29 21.9 17.7 77 215 3.1 4.2 1012.5 0.0000 0.0000
00:39 21.5 17.3 77 220 3.1 4.7 1012.6 0.0000 0.0000
00:49 21.3 17.5 79 218 2.8 3.6 1012.6 0.0000 0.0000
00:59 21.2 17.2 78 219 3.1 3.9 1012.6 0.0000 0.0000
01:09 21.2 17.2 78 218 3.1 4.4 1012.6 0.0000 0.0000
01:20 21.2 17.2 78 219 2.8 3.9 1012.8 0.0000 0.0000
01:30 21.1 17.1 78 218 2.8 4.2 1012.7 0.0000 0.0000
01:39 21 17 78 219 2.8 4.2 1012.8 0.0000 0.0000
01:50 20.8 16.8 78 221 2.8 3.6 1012.9 0.0000 0.0000
02:00 20.6 16.8 79 221 2.8 3.9 1012.9 0.0000 0.0000
02:10 20.4 16.6 79 225 2.5 3.9 1013 0.0000 0.0000
02:20 20.3 16.3 78 223 2.5 4.2 1013.1 0.0000 0.0000
02:30 20.2 16.2 78 222 2.8 4.7 1013.1 0.0000 0.0000
02:40 20.2 16.4 79 223 2.8 4.2 1013.1 0.0000 0.0000
02:50 20.2 16.6 80 223 2.5 3.9 1013 0.0000 0.0000
03:00 20.2 16.6 80 222 2.5 4.2 1013.1 0.0000 0.0000
03:11 20.2 16.2 78 222 3.1 4.4 1013.2 0.0000 0.0000
03:20 20.2 16.2 78 223 3.3 5 1013.2 0.0000 0.0000
03:30 20.1 15.9 77 222 3.3 4.7 1013.2 0.0000 0.0000
03:41 20.1 15.7 76 224 3.3 5.3 1013.1 0.0000 0.0000
03:51 19.9 15.5 76 225 3.1 4.4 1013.1 0.0000 0.0000
04:01 19.9 16 78 225 2.5 3.9 1013.1 0.0000 0.0000
04:11 19.9 15.8 77 223 2.8 4.4 1013.1 0.0000 0.0000
04:21 19.8 15.7 77 223 3.1 5 1013.2 0.0000 0.0000
04:31 19.8 15.9 78 224 2.8 4.7 1013.1 0.0000 0.0000
04:41 19.8 15.9 78 225 3.1 4.4 1013.1 0.0000 0.0000
04:52 19.8 15.7 77 225 3.3 4.4 1013 0.0000 0.0000
05:01 19.8 15.7 77 225 3.3 5 1013 0.0000 0.0000
05:11 19.8 15.5 76 224 3.6 5.3 1013.1 0.0000 0.0000
05:21 19.7 15.4 76 225 3.3 5 1013.1 0.0000 0.0000
05:32 19.5 15.2 76 223 3.6 5.8 1013.2 0.0000 0.0000
05:41 19.5 15.2 76 224 3.3 6.9 1013 0.0000 0.0000
05:51 19.5 15.4 77 224 3.1 4.4 1013.2 0.0000 0.0000
06:02 19.6 15.3 76 224 3.3 4.7 1013.2 0.0000 0.0000
06:12 19.7 15.4 76 223 3.6 5 1013.3 0.0000 0.0000
06:22 19.7 15.4 76 224 3.3 5 1013.3 0.0000 0.0000
06:31 19.6 15.3 76 225 3.6 5.3 1013.2 0.0000 0.0000
06:42 19.5 15 75 225 3.6 5.6 1013.5 0.0000 0.0000
06:52 19.3 14.8 75 224 3.6 5.3 1013.5 0.0000 0.0000
07:02 19.2 14.9 76 224 3.1 4.7 1013.6 0.0000 0.0000
07:13 19.2 14.9 76 224 3.3 4.7 1013.6 0.0000 0.0000
07:22 19.2 14.9 76 225 3.6 6.4 1013.7 0.0000 0.0000
07:32 19.1 15 77 224 3.6 5.6 1013.8 0.0000 0.0000
07:42 19.2 15.1 77 225 3.3 5.3 1013.8 0.0000 0.0000
07:53 19.4 15.3 77 224 3.1 5 1013.9 0.0000 0.0000
08:03 19.6 15.3 76 222 2.8 4.4 1013.9 0.0000 0.0000
08:12 19.8 15.5 76 225 3.1 4.4 1014.2 0.0000 0.0000
08:23 20.2 15.4 74 223 3.1 4.7 1014.1 0.0000 0.0000
08:33 20.5 15.7 74 224 3.1 4.2 1014 0.0000 0.0000
08:43 20.9 16.1 74 227 2.8 3.9 1014.2 0.0000 0.0000
08:52 21.4 16.1 72 226 2.8 3.9 1014.1 0.0000 0.0000
09:03 22 16.5 71 229 3.3 4.4 1014.1 0.0000 0.0000
09:13 22.5 16.8 70 230 2.8 3.6 1014.3 0.0000 0.0000
09:23 23.1 17.3 70 228 3.1 3.9 1014.3 0.0000 0.0000
09:34 23.8 18.2 71 227 3.3 4.7 1014.1 0.0000 0.0000
09:43 24.5 19.6 74 225 4.2 5.8 1014 0.0000 0.0000
09:53 25.2 20.5 75 227 3.6 5.6 1014 0.0000 0.0000
10:03 26 21.2 75 230 3.3 5 1014.2 0.0000 0.0000
10:14 26.4 21.2 73 228 3.1 5.3 1014.2 0.0000 0.0000
10:24 26.9 21.4 72 224 3.3 5 1014.4 0.0000 0.0000
10:33 27 21.5 72 224 3.9 6.7 1014.4 0.0000 0.0000
10:44 27.3 21.8 72 225 3.1 5 1014.5 0.0000 0.0000
10:54 27.5 21.5 70 224 3.3 5.3 1014.5 0.0000 0.0000
11:04 27.6 21.4 69 227 3.3 5.3 1014.5 0.0000 0.0000
11:14 27.6 21.2 68 230 3.6 6.9 1014.4 0.0000 0.0000
11:25 27.4 21 68 230 3.6 5 1014.2 0.0000 0.0000
11:35 27.3 20.6 67 235 3.3 5 1014.2 0.0000 0.0000
11:44 27.4 20.7 67 230 3.6 5.3 1014.3 0.0000 0.0000
11:54 27.5 20.8 67 228 3.6 5.3 1014.1 0.0000 0.0000
12:05 27.5 20.8 67 230 3.9 5.3 1014.3 0.0000 0.0000
12:15 27.7 21.3 68 230 3.9 5.8 1014.1 0.0000 0.0000
12:25 27.9 21.7 69 228 3.9 5.8 1014.1 0.0000 0.0000
12:35 28 22 70 226 3.3 5.3 1014.2 0.0000 0.0000
12:45 28 22.3 71 228 3.6 5.8 1014.2 0.0000 0.0000
12:55 28 22 70 231 3.1 4.7 1014 0.0000 0.0000
13:05 28.1 22.1 70 239 2.8 4.2 1014 0.0000 0.0000
13:16 28.1 22.3 71 243 3.1 4.7 1013.9 0.0000 0.0000
13:25 28.1 22.1 70 230 3.1 5 1014 0.0000 0.0000
13:35 28.3 22.1 69 235 3.1 4.4 1014 0.0000 0.0000
13:46 28.3 21.6 67 239 2.8 4.2 1014 0.0000 0.0000
13:56 28.4 21.4 66 234 3.1 5.3 1013.8 0.0000 0.0000
14:06 28.4 21.4 66 234 3.1 4.7 1013.7 0.0000 0.0000
14:15 28.3 21.3 66 233 3.1 5 1013.6 0.0000 0.0000
14:26 28.2 21 65 233 3.1 5 1013.6 0.0000 0.0000
14:36 28.2 21.2 66 231 3.1 5.3 1013.5 0.0000 0.0000
14:46 28.1 21.2 66 232 3.1 4.4 1013.5 0.0000 0.0000
14:56 28 21.1 66 240 3.1 5 1013.5 0.0000 0.0000
15:06 27.9 21 66 235 3.1 4.7 1013.4 0.0000 0.0000
15:16 27.8 20.6 65 230 3.3 5 1013.3 0.0000 0.0000
15:26 27.7 20.8 66 239 2.8 5 1013.5 0.0000 0.0000
15:37 27.6 20.4 65 235 2.8 4.7 1013.3 0.0000 0.0000
15:47 27.5 20.3 65 233 3.3 4.7 1013.3 0.0000 0.0000
15:56 27.5 20.1 64 232 3.1 4.7 1013.4 0.0000 0.0000
16:07 27.4 20 64 233 3.3 4.4 1013.4 0.0000 0.0000
16:17 27.3 19.9 64 231 3.3 4.7 1013.4 0.0000 0.0000
16:27 27 19.9 65 235 3.1 4.4 1013.4 0.0000 0.0000
16:37 26.8 19.9 66 232 3.3 5.3 1013.4 0.0000 0.0000
16:47 26.5 19.6 66 234 3.3 5 1013.3 0.0000 0.0000
16:57 26.3 19.4 66 229 3.6 5 1013.1 0.0000 0.0000
17:07 26.1 19.3 66 227 3.3 4.7 1013.3 0.0000 0.0000
17:17 26.1 19.7 68 228 3.3 5 1013.3 0.0000 0.0000
17:27 25.9 19.3 67 227 3.6 4.7 1013.4 0.0000 0.0000
17:37 25.8 19.2 67 225 3.6 4.7 1013.3 0.0000 0.0000
17:47 25.7 19.1 67 220 4.4 6.4 1013.2 0.0000 0.0000
17:58 25.6 19.3 68 221 3.9 5.3 1013.2 0.0000 0.0000
18:08 25.5 19.2 68 218 3.9 5 1013.3 0.0000 0.0000
18:17 25.4 19.3 69 221 3.9 6.1 1013.2 0.0000 0.0000
18:28 25.3 19.4 70 217 3.6 5.3 1013.2 0.0000 0.0000
18:38 25.2 19.6 71 213 3.9 5.6 1013.3 0.0000 0.0000
18:48 25 19.2 70 211 3.9 5.3 1013.1 0.0000 0.0000
18:57 24.9 19.3 71 212 4.2 6.1 1013.2 0.0000 0.0000
19:08 24.8 19.4 72 209 3.6 5.3 1013.2 0.0000 0.0000
19:18 24.7 19.3 72 204 3.6 5.6 1013.4 0.0000 0.0000
19:28 24.6 19.4 73 208 3.6 4.7 1013.5 0.0000 0.0000
19:38 24.6 19.4 73 209 3.6 5 1013.4 0.0000 0.0000
19:49 24.5 19.3 73 209 3.6 5 1013.5 0.0000 0.0000
19:58 24.5 19.3 73 208 3.9 5 1013.6 0.0000 0.0000
20:08 24.4 19 72 215 3.9 5.3 1013.7 0.0000 0.0000
20:19 24.4 18.8 71 217 4.2 5.6 1013.6 0.0000 0.0000
20:29 24.3 18.7 71 213 4.2 5.3 1013.6 0.0000 0.0000
20:39 24.3 18.5 70 219 3.9 5.3 1013.7 0.0000 0.0000
20:49 24.3 18.5 70 215 4.2 6.1 1013.7 0.0000 0.0000
20:59 24.3 18.5 70 215 4.4 5.6 1013.8 0.0000 0.0000
21:09 24.2 18.4 70 221 4.2 5.8 1014 0.0000 0.0000

DAY STATISTIC

2021-09-18
TEMPERATURE
AVERAGE
23.8
HIGH
28.4
13:56
LOW
19.1
07:32
PRESSURE
AVERAGE
1013.5
HIGH
1014.5
10:44
LOW
1012.3
00:09
DEWPOINT
AVERAGE
18.4
HIGH
22.3
12:45
LOW
14.8
06:52
HUMIDITY
AVERAGE
72
HIGH
80
02:50
LOW
64
15:56
WIND SPEED
AVERAGE
3.3
HIGH
4.4
17:47
WIND GUST
AVERAGE
4.9
HIGH
6.9
05:41
WIND DIRECTION
PREVAILING
SW
99.2%
N
0.0
NE
0.0
E
0.0
SE
0.0
S
0.8
SW
99.2
W
0.0
NW
0.0
PRECIPITATION
RAIN HOUR
0.0
RAIN DAY
0.0
TEMPERATURE (°C)
LOW
19.1
HIGH
28.4
AVERAGE
23.8
PRESSURE (hpa)
LOW
1012.3
HIGH
1014.5
AVERAGE
1013.5
DEVICE